sensor_id;sensor_type;location;lat;lon;timestamp;temperature;humidity
15394;DHT22;7795;47.986;11.868;2023-09-30T00:00:03;21.60;64.30
15394;DHT22;7795;47.986;11.868;2023-09-30T00:02:30;21.60;65.20
15394;DHT22;7795;47.986;11.868;2023-09-30T00:04:57;21.60;64.50
15394;DHT22;7795;47.986;11.868;2023-09-30T00:07:23;21.60;64.50
15394;DHT22;7795;47.986;11.868;2023-09-30T00:09:49;21.60;64.50
15394;DHT22;7795;47.986;11.868;2023-09-30T00:12:14;21.60;64.50
15394;DHT22;7795;47.986;11.868;2023-09-30T00:14:40;21.50;64.40
15394;DHT22;7795;47.986;11.868;2023-09-30T00:17:06;21.50;64.40
15394;DHT22;7795;47.986;11.868;2023-09-30T00:19:32;21.50;64.50
15394;DHT22;7795;47.986;11.868;2023-09-30T00:22:00;21.50;64.60
15394;DHT22;7795;47.986;11.868;2023-09-30T00:24:25;21.50;64.60
15394;DHT22;7795;47.986;11.868;2023-09-30T00:26:51;21.50;64.60
15394;DHT22;7795;47.986;11.868;2023-09-30T00:29:17;21.50;64.70
15394;DHT22;7795;47.986;11.868;2023-09-30T00:31:43;21.50;64.80
15394;DHT22;7795;47.986;11.868;2023-09-30T00:34:09;21.40;64.80
15394;DHT22;7795;47.986;11.868;2023-09-30T00:36:35;21.40;64.90
15394;DHT22;7795;47.986;11.868;2023-09-30T00:39:02;21.40;64.90
15394;DHT22;7795;47.986;11.868;2023-09-30T00:41:29;21.30;65.10
15394;DHT22;7795;47.986;11.868;2023-09-30T00:43:55;21.40;65.10
15394;DHT22;7795;47.986;11.868;2023-09-30T00:46:26;21.30;65.10
15394;DHT22;7795;47.986;11.868;2023-09-30T00:48:53;21.30;65.30
15394;DHT22;7795;47.986;11.868;2023-09-30T00:51:19;21.30;65.20
15394;DHT22;7795;47.986;11.868;2023-09-30T00:53:46;21.30;65.30
15394;DHT22;7795;47.986;11.868;2023-09-30T00:56:13;21.30;66.20
15394;DHT22;7795;47.986;11.868;2023-09-30T00:58:39;21.30;65.50
15394;DHT22;7795;47.986;11.868;2023-09-30T01:01:05;21.20;65.50
15394;DHT22;7795;47.986;11.868;2023-09-30T01:03:31;21.20;66.40
15394;DHT22;7795;47.986;11.868;2023-09-30T01:05:57;21.20;65.60
15394;DHT22;7795;47.986;11.868;2023-09-30T01:08:23;21.20;65.70
15394;DHT22;7795;47.986;11.868;2023-09-30T01:10:49;21.20;65.90
15394;DHT22;7795;47.986;11.868;2023-09-30T01:13:17;21.20;66.00
15394;DHT22;7795;47.986;11.868;2023-09-30T01:15:43;21.20;66.60
15394;DHT22;7795;47.986;11.868;2023-09-30T01:18:09;21.20;66.10
15394;DHT22;7795;47.986;11.868;2023-09-30T01:20:34;21.10;66.10
15394;DHT22;7795;47.986;11.868;2023-09-30T01:23:02;21.10;66.30
15394;DHT22;7795;47.986;11.868;2023-09-30T01:25:29;21.10;66.40
15394;DHT22;7795;47.986;11.868;2023-09-30T01:27:54;21.10;66.30
15394;DHT22;7795;47.986;11.868;2023-09-30T01:30:20;21.10;66.30
15394;DHT22;7795;47.986;11.868;2023-09-30T01:32:48;21.10;66.40
15394;DHT22;7795;47.986;11.868;2023-09-30T01:35:14;21.00;66.40
15394;DHT22;7795;47.986;11.868;2023-09-30T01:37:40;21.00;66.60
15394;DHT22;7795;47.986;11.868;2023-09-30T01:40:08;21.00;66.70
15394;DHT22;7795;47.986;11.868;2023-09-30T01:42:37;21.00;66.70
15394;DHT22;7795;47.986;11.868;2023-09-30T01:45:03;20.90;66.70
15394;DHT22;7795;47.986;11.868;2023-09-30T01:47:29;21.00;66.90
15394;DHT22;7795;47.986;11.868;2023-09-30T01:49:55;20.90;67.00
15394;DHT22;7795;47.986;11.868;2023-09-30T01:52:20;20.90;67.10
15394;DHT22;7795;47.986;11.868;2023-09-30T01:54:46;20.90;67.20
15394;DHT22;7795;47.986;11.868;2023-09-30T01:57:13;20.90;67.30
15394;DHT22;7795;47.986;11.868;2023-09-30T01:59:39;20.90;67.50
15394;DHT22;7795;47.986;11.868;2023-09-30T02:02:05;20.90;67.60
15394;DHT22;7795;47.986;11.868;2023-09-30T02:04:30;20.80;67.50
15394;DHT22;7795;47.986;11.868;2023-09-30T02:06:56;20.80;67.60
15394;DHT22;7795;47.986;11.868;2023-09-30T02:09:22;20.80;67.80
15394;DHT22;7795;47.986;11.868;2023-09-30T02:11:47;20.80;67.90
15394;DHT22;7795;47.986;11.868;2023-09-30T02:14:14;20.70;67.80
15394;DHT22;7795;47.986;11.868;2023-09-30T02:16:40;20.80;68.00
15394;DHT22;7795;47.986;11.868;2023-09-30T02:19:06;20.80;68.00
15394;DHT22;7795;47.986;11.868;2023-09-30T02:21:32;20.70;67.90
15394;DHT22;7795;47.986;11.868;2023-09-30T02:23:57;20.70;68.00
15394;DHT22;7795;47.986;11.868;2023-09-30T02:26:23;20.70;68.20
15394;DHT22;7795;47.986;11.868;2023-09-30T02:28:51;20.70;68.30
15394;DHT22;7795;47.986;11.868;2023-09-30T02:31:18;20.70;68.40
15394;DHT22;7795;47.986;11.868;2023-09-30T02:33:44;20.70;68.60
15394;DHT22;7795;47.986;11.868;2023-09-30T02:36:10;20.60;68.50
15394;DHT22;7795;47.986;11.868;2023-09-30T02:38:35;20.60;68.60
15394;DHT22;7795;47.986;11.868;2023-09-30T02:41:04;20.60;68.70
15394;DHT22;7795;47.986;11.868;2023-09-30T02:43:32;20.60;68.70
15394;DHT22;7795;47.986;11.868;2023-09-30T02:45:58;20.60;68.70
15394;DHT22;7795;47.986;11.868;2023-09-30T02:48:25;20.60;68.90
15394;DHT22;7795;47.986;11.868;2023-09-30T02:50:51;20.60;69.00
15394;DHT22;7795;47.986;11.868;2023-09-30T02:53:16;20.50;69.00
15394;DHT22;7795;47.986;11.868;2023-09-30T02:55:42;20.60;69.10
15394;DHT22;7795;47.986;11.868;2023-09-30T02:58:08;20.50;69.00
15394;DHT22;7795;47.986;11.868;2023-09-30T03:00:34;20.50;69.10
15394;DHT22;7795;47.986;11.868;2023-09-30T03:03:01;20.50;69.30
15394;DHT22;7795;47.986;11.868;2023-09-30T03:05:29;20.50;69.30
15394;DHT22;7795;47.986;11.868;2023-09-30T03:07:58;20.50;69.40
15394;DHT22;7795;47.986;11.868;2023-09-30T03:10:25;20.50;69.50
15394;DHT22;7795;47.986;11.868;2023-09-30T03:12:52;20.50;69.60
15394;DHT22;7795;47.986;11.868;2023-09-30T03:15:18;20.40;69.60
15394;DHT22;7795;47.986;11.868;2023-09-30T03:17:44;20.50;69.60
15394;DHT22;7795;47.986;11.868;2023-09-30T03:20:11;20.40;69.70
15394;DHT22;7795;47.986;11.868;2023-09-30T03:22:40;20.40;69.70
15394;DHT22;7795;47.986;11.868;2023-09-30T03:25:07;20.40;69.90
15394;DHT22;7795;47.986;11.868;2023-09-30T03:27:33;20.40;69.90
15394;DHT22;7795;47.986;11.868;2023-09-30T03:29:58;20.40;69.90
15394;DHT22;7795;47.986;11.868;2023-09-30T03:32:24;20.40;69.90
15394;DHT22;7795;47.986;11.868;2023-09-30T03:34:52;20.40;69.90
15394;DHT22;7795;47.986;11.868;2023-09-30T03:37:18;20.30;69.70
15394;DHT22;7795;47.986;11.868;2023-09-30T03:39:45;20.30;69.70
15394;DHT22;7795;47.986;11.868;2023-09-30T03:42:14;20.40;69.80
15394;DHT22;7795;47.986;11.868;2023-09-30T03:44:40;20.30;69.90
15394;DHT22;7795;47.986;11.868;2023-09-30T03:47:06;20.30;69.90
15394;DHT22;7795;47.986;11.868;2023-09-30T03:49:34;20.30;69.90
15394;DHT22;7795;47.986;11.868;2023-09-30T03:52:00;20.30;70.00
15394;DHT22;7795;47.986;11.868;2023-09-30T03:54:26;20.30;69.90
15394;DHT22;7795;47.986;11.868;2023-09-30T03:56:53;20.30;70.00
15394;DHT22;7795;47.986;11.868;2023-09-30T03:59:19;20.30;69.90
15394;DHT22;7795;47.986;11.868;2023-09-30T04:01:45;20.30;69.90
15394;DHT22;7795;47.986;11.868;2023-09-30T04:04:12;20.30;69.70
15394;DHT22;7795;47.986;11.868;2023-09-30T04:06:38;20.30;69.70
15394;DHT22;7795;47.986;11.868;2023-09-30T04:09:04;20.30;69.70
15394;DHT22;7795;47.986;11.868;2023-09-30T04:11:35;20.30;69.70
15394;DHT22;7795;47.986;11.868;2023-09-30T04:14:03;20.20;69.40
15394;DHT22;7795;47.986;11.868;2023-09-30T04:16:29;20.30;69.40
15394;DHT22;7795;47.986;11.868;2023-09-30T04:18:55;20.30;69.40
15394;DHT22;7795;47.986;11.868;2023-09-30T04:21:21;20.20;69.30
15394;DHT22;7795;47.986;11.868;2023-09-30T04:23:47;20.20;69.20
15394;DHT22;7795;47.986;11.868;2023-09-30T04:26:14;20.20;69.20
15394;DHT22;7795;47.986;11.868;2023-09-30T04:28:40;20.20;69.30
15394;DHT22;7795;47.986;11.868;2023-09-30T04:31:07;20.20;69.30
15394;DHT22;7795;47.986;11.868;2023-09-30T04:33:33;20.20;69.40
15394;DHT22;7795;47.986;11.868;2023-09-30T04:36:01;20.20;69.50
15394;DHT22;7795;47.986;11.868;2023-09-30T04:38:27;20.20;69.40
15394;DHT22;7795;47.986;11.868;2023-09-30T04:40:52;20.20;69.30
15394;DHT22;7795;47.986;11.868;2023-09-30T04:43:19;20.20;69.40
15394;DHT22;7795;47.986;11.868;2023-09-30T04:45:46;20.20;69.40
15394;DHT22;7795;47.986;11.868;2023-09-30T04:48:13;20.20;69.40
15394;DHT22;7795;47.986;11.868;2023-09-30T04:50:39;20.20;69.50
15394;DHT22;7795;47.986;11.868;2023-09-30T04:53:05;20.20;69.50
15394;DHT22;7795;47.986;11.868;2023-09-30T04:55:31;20.10;69.50
15394;DHT22;7795;47.986;11.868;2023-09-30T04:57:57;20.10;69.60
15394;DHT22;7795;47.986;11.868;2023-09-30T05:00:23;20.20;69.70
15394;DHT22;7795;47.986;11.868;2023-09-30T05:02:50;20.10;69.60
15394;DHT22;7795;47.986;11.868;2023-09-30T05:05:19;20.10;69.70
15394;DHT22;7795;47.986;11.868;2023-09-30T05:07:44;20.10;69.90
15394;DHT22;7795;47.986;11.868;2023-09-30T05:10:13;20.10;69.90
15394;DHT22;7795;47.986;11.868;2023-09-30T05:12:39;20.00;69.90
15394;DHT22;7795;47.986;11.868;2023-09-30T05:15:07;20.00;70.60
15394;DHT22;7795;47.986;11.868;2023-09-30T05:17:33;20.00;70.00
15394;DHT22;7795;47.986;11.868;2023-09-30T05:19:59;20.00;70.10
15394;DHT22;7795;47.986;11.868;2023-09-30T05:22:26;20.00;70.20
15394;DHT22;7795;47.986;11.868;2023-09-30T05:24:52;20.00;70.30
15394;DHT22;7795;47.986;11.868;2023-09-30T05:27:18;19.90;70.30
15394;DHT22;7795;47.986;11.868;2023-09-30T05:29:43;19.90;70.30
15394;DHT22;7795;47.986;11.868;2023-09-30T05:32:09;19.80;70.30
15394;DHT22;7795;47.986;11.868;2023-09-30T05:34:35;19.80;70.50
15394;DHT22;7795;47.986;11.868;2023-09-30T05:37:01;19.80;70.60
15394;DHT22;7795;47.986;11.868;2023-09-30T05:39:28;19.80;70.70
15394;DHT22;7795;47.986;11.868;2023-09-30T05:41:54;19.70;70.90
15394;DHT22;7795;47.986;11.868;2023-09-30T05:44:20;19.70;71.00
15394;DHT22;7795;47.986;11.868;2023-09-30T05:46:46;19.70;71.10
15394;DHT22;7795;47.986;11.868;2023-09-30T05:49:12;19.60;71.20
15394;DHT22;7795;47.986;11.868;2023-09-30T05:51:39;19.60;71.30
15394;DHT22;7795;47.986;11.868;2023-09-30T05:54:06;19.60;72.10
15394;DHT22;7795;47.986;11.868;2023-09-30T05:56:35;19.60;71.50
15394;DHT22;7795;47.986;11.868;2023-09-30T05:59:01;19.60;71.50
15394;DHT22;7795;47.986;11.868;2023-09-30T06:01:27;19.60;71.50
15394;DHT22;7795;47.986;11.868;2023-09-30T06:03:53;19.60;71.60
15394;DHT22;7795;47.986;11.868;2023-09-30T06:06:19;19.60;71.60
15394;DHT22;7795;47.986;11.868;2023-09-30T06:08:45;19.60;71.70
15394;DHT22;7795;47.986;11.868;2023-09-30T06:11:16;19.60;71.80
15394;DHT22;7795;47.986;11.868;2023-09-30T06:13:44;19.60;72.10
15394;DHT22;7795;47.986;11.868;2023-09-30T06:16:10;19.60;71.90
15394;DHT22;7795;47.986;11.868;2023-09-30T06:18:36;19.60;72.00
15394;DHT22;7795;47.986;11.868;2023-09-30T06:21:02;19.60;72.00
15394;DHT22;7795;47.986;11.868;2023-09-30T06:23:29;19.60;72.10
15394;DHT22;7795;47.986;11.868;2023-09-30T06:25:55;19.60;72.20
15394;DHT22;7795;47.986;11.868;2023-09-30T06:28:21;19.60;72.30
15394;DHT22;7795;47.986;11.868;2023-09-30T06:30:52;19.60;72.20
15394;DHT22;7795;47.986;11.868;2023-09-30T06:33:18;19.60;72.30
15394;DHT22;7795;47.986;11.868;2023-09-30T06:35:44;19.60;72.30
15394;DHT22;7795;47.986;11.868;2023-09-30T06:38:16;19.70;72.30
15394;DHT22;7795;47.986;11.868;2023-09-30T06:40:43;19.70;72.50
15394;DHT22;7795;47.986;11.868;2023-09-30T06:43:08;19.70;72.50
15394;DHT22;7795;47.986;11.868;2023-09-30T06:45:34;19.70;72.50
15394;DHT22;7795;47.986;11.868;2023-09-30T06:48:06;19.80;72.60
15394;DHT22;7795;47.986;11.868;2023-09-30T06:50:32;19.80;72.50
15394;DHT22;7795;47.986;11.868;2023-09-30T06:52:58;19.80;72.30
15394;DHT22;7795;47.986;11.868;2023-09-30T06:55:24;19.80;72.20
15394;DHT22;7795;47.986;11.868;2023-09-30T06:57:52;19.80;72.20
15394;DHT22;7795;47.986;11.868;2023-09-30T07:00:18;19.90;72.20
15394;DHT22;7795;47.986;11.868;2023-09-30T07:02:44;20.00;72.20
15394;DHT22;7795;47.986;11.868;2023-09-30T07:05:14;20.00;72.10
15394;DHT22;7795;47.986;11.868;2023-09-30T07:07:40;20.00;72.00
15394;DHT22;7795;47.986;11.868;2023-09-30T07:10:09;20.10;71.90
15394;DHT22;7795;47.986;11.868;2023-09-30T07:12:35;20.10;71.70
15394;DHT22;7795;47.986;11.868;2023-09-30T07:15:01;20.20;71.60
15394;DHT22;7795;47.986;11.868;2023-09-30T07:17:27;20.20;71.50
15394;DHT22;7795;47.986;11.868;2023-09-30T07:19:53;20.20;71.30
15394;DHT22;7795;47.986;11.868;2023-09-30T07:22:20;20.30;71.30
15394;DHT22;7795;47.986;11.868;2023-09-30T07:24:46;20.30;71.20
15394;DHT22;7795;47.986;11.868;2023-09-30T07:27:12;20.30;71.10
15394;DHT22;7795;47.986;11.868;2023-09-30T07:29:37;20.40;71.10
15394;DHT22;7795;47.986;11.868;2023-09-30T07:32:04;20.40;71.00
15394;DHT22;7795;47.986;11.868;2023-09-30T07:34:31;20.40;70.80
15394;DHT22;7795;47.986;11.868;2023-09-30T07:36:56;20.50;70.60
15394;DHT22;7795;47.986;11.868;2023-09-30T07:39:23;20.50;70.40
15394;DHT22;7795;47.986;11.868;2023-09-30T07:41:49;20.50;70.20
15394;DHT22;7795;47.986;11.868;2023-09-30T07:44:15;20.60;70.00
15394;DHT22;7795;47.986;11.868;2023-09-30T07:46:41;20.60;69.90
15394;DHT22;7795;47.986;11.868;2023-09-30T07:49:08;20.60;69.70
15394;DHT22;7795;47.986;11.868;2023-09-30T07:51:33;20.60;69.60
15394;DHT22;7795;47.986;11.868;2023-09-30T07:53:59;20.60;69.60
15394;DHT22;7795;47.986;11.868;2023-09-30T07:56:26;20.60;69.60
15394;DHT22;7795;47.986;11.868;2023-09-30T07:58:52;20.70;69.40
15394;DHT22;7795;47.986;11.868;2023-09-30T08:01:18;20.70;69.30
15394;DHT22;7795;47.986;11.868;2023-09-30T08:03:45;20.70;69.20
15394;DHT22;7795;47.986;11.868;2023-09-30T08:06:10;20.70;69.20
15394;DHT22;7795;47.986;11.868;2023-09-30T08:08:36;20.70;69.20
15394;DHT22;7795;47.986;11.868;2023-09-30T08:11:02;20.60;69.20
15394;DHT22;7795;47.986;11.868;2023-09-30T08:13:29;20.60;69.30
15394;DHT22;7795;47.986;11.868;2023-09-30T08:15:55;20.60;69.30
15394;DHT22;7795;47.986;11.868;2023-09-30T08:18:21;20.60;69.30
15394;DHT22;7795;47.986;11.868;2023-09-30T08:20:47;20.60;69.30
15394;DHT22;7795;47.986;11.868;2023-09-30T08:23:13;20.70;69.40
15394;DHT22;7795;47.986;11.868;2023-09-30T08:25:39;20.70;69.50
15394;DHT22;7795;47.986;11.868;2023-09-30T08:28:05;20.70;69.50
15394;DHT22;7795;47.986;11.868;2023-09-30T08:30:32;20.70;69.60
15394;DHT22;7795;47.986;11.868;2023-09-30T08:32:58;20.70;69.50
15394;DHT22;7795;47.986;11.868;2023-09-30T08:35:24;20.80;69.60
15394;DHT22;7795;47.986;11.868;2023-09-30T08:37:50;20.80;69.40
15394;DHT22;7795;47.986;11.868;2023-09-30T08:40:20;20.90;69.30
15394;DHT22;7795;47.986;11.868;2023-09-30T08:42:47;20.90;69.30
15394;DHT22;7795;47.986;11.868;2023-09-30T08:45:17;21.00;69.30
15394;DHT22;7795;47.986;11.868;2023-09-30T08:47:45;21.10;69.00
15394;DHT22;7795;47.986;11.868;2023-09-30T08:50:12;21.10;69.40
15394;DHT22;7795;47.986;11.868;2023-09-30T08:52:40;21.20;68.70
15394;DHT22;7795;47.986;11.868;2023-09-30T08:55:07;21.20;68.60
15394;DHT22;7795;47.986;11.868;2023-09-30T08:57:36;21.30;68.50
15394;DHT22;7795;47.986;11.868;2023-09-30T09:00:03;21.40;68.40
15394;DHT22;7795;47.986;11.868;2023-09-30T09:02:30;21.40;68.40
15394;DHT22;7795;47.986;11.868;2023-09-30T09:04:58;21.50;68.30
15394;DHT22;7795;47.986;11.868;2023-09-30T09:07:24;21.50;68.10
15394;DHT22;7795;47.986;11.868;2023-09-30T09:10:03;21.60;68.00
15394;DHT22;7795;47.986;11.868;2023-09-30T09:12:30;21.60;67.50
15394;DHT22;7795;47.986;11.868;2023-09-30T09:14:56;21.70;67.80
15394;DHT22;7795;47.986;11.868;2023-09-30T09:17:21;21.70;67.60
15394;DHT22;7795;47.986;11.868;2023-09-30T09:20:00;21.80;68.40
15394;DHT22;7795;47.986;11.868;2023-09-30T09:22:37;21.90;67.20
15394;DHT22;7795;47.986;11.868;2023-09-30T09:25:04;21.90;67.10
15394;DHT22;7795;47.986;11.868;2023-09-30T09:27:33;21.90;67.30
15394;DHT22;7795;47.986;11.868;2023-09-30T09:30:14;22.00;67.20
15394;DHT22;7795;47.986;11.868;2023-09-30T09:32:54;22.10;66.80
15394;DHT22;7795;47.986;11.868;2023-09-30T09:35:22;22.10;66.60
15394;DHT22;7795;47.986;11.868;2023-09-30T09:37:55;22.20;66.70
15394;DHT22;7795;47.986;11.868;2023-09-30T09:40:22;22.20;66.50
15394;DHT22;7795;47.986;11.868;2023-09-30T09:42:51;22.30;66.50
15394;DHT22;7795;47.986;11.868;2023-09-30T09:45:20;22.30;66.20
15394;DHT22;7795;47.986;11.868;2023-09-30T09:47:47;22.40;66.20
15394;DHT22;7795;47.986;11.868;2023-09-30T09:50:14;22.40;65.60
15394;DHT22;7795;47.986;11.868;2023-09-30T09:52:42;22.40;65.30
15394;DHT22;7795;47.986;11.868;2023-09-30T09:55:11;22.50;65.10
15394;DHT22;7795;47.986;11.868;2023-09-30T09:57:37;22.50;65.10
15394;DHT22;7795;47.986;11.868;2023-09-30T10:00:05;22.50;65.20
15394;DHT22;7795;47.986;11.868;2023-09-30T10:02:39;22.60;65.20
15394;DHT22;7795;47.986;11.868;2023-09-30T10:05:05;22.60;64.70
15394;DHT22;7795;47.986;11.868;2023-09-30T10:07:34;22.60;64.80
15394;DHT22;7795;47.986;11.868;2023-09-30T10:10:05;22.70;64.50
15394;DHT22;7795;47.986;11.868;2023-09-30T10:12:36;22.70;64.20
15394;DHT22;7795;47.986;11.868;2023-09-30T10:15:34;22.70;64.10
15394;DHT22;7795;47.986;11.868;2023-09-30T10:18:03;22.80;64.00
15394;DHT22;7795;47.986;11.868;2023-09-30T10:20:30;22.80;64.30
15394;DHT22;7795;47.986;11.868;2023-09-30T10:23:18;22.80;64.00
15394;DHT22;7795;47.986;11.868;2023-09-30T10:25:46;22.80;62.30
15394;DHT22;7795;47.986;11.868;2023-09-30T10:28:36;22.90;62.90
15394;DHT22;7795;47.986;11.868;2023-09-30T10:31:10;22.90;62.00
15394;DHT22;7795;47.986;11.868;2023-09-30T10:36:44;22.90;61.90
15394;DHT22;7795;47.986;11.868;2023-09-30T10:39:12;22.90;62.60
15394;DHT22;7795;47.986;11.868;2023-09-30T10:41:54;22.90;62.50
15394;DHT22;7795;47.986;11.868;2023-09-30T10:44:35;22.90;62.10
15394;DHT22;7795;47.986;11.868;2023-09-30T10:53:07;23.00;62.00
15394;DHT22;7795;47.986;11.868;2023-09-30T10:55:33;23.10;62.20
15394;DHT22;7795;47.986;11.868;2023-09-30T10:58:00;23.10;61.80
15394;DHT22;7795;47.986;11.868;2023-09-30T11:00:26;23.20;61.50
15394;DHT22;7795;47.986;11.868;2023-09-30T11:02:53;23.30;61.70
15394;DHT22;7795;47.986;11.868;2023-09-30T11:05:19;23.30;61.50
15394;DHT22;7795;47.986;11.868;2023-09-30T11:07:48;23.40;61.50
15394;DHT22;7795;47.986;11.868;2023-09-30T11:10:17;23.40;61.30
15394;DHT22;7795;47.986;11.868;2023-09-30T11:12:54;23.50;61.00
15394;DHT22;7795;47.986;11.868;2023-09-30T11:15:21;23.50;60.50
15394;DHT22;7795;47.986;11.868;2023-09-30T11:17:47;23.50;60.10
15394;DHT22;7795;47.986;11.868;2023-09-30T11:20:12;23.60;60.00
15394;DHT22;7795;47.986;11.868;2023-09-30T11:22:38;23.60;59.90
15394;DHT22;7795;47.986;11.868;2023-09-30T11:25:05;23.60;60.50
15394;DHT22;7795;47.986;11.868;2023-09-30T11:27:31;23.70;59.50
15394;DHT22;7795;47.986;11.868;2023-09-30T11:29:57;23.70;59.50
15394;DHT22;7795;47.986;11.868;2023-09-30T11:32:26;23.70;59.40
15394;DHT22;7795;47.986;11.868;2023-09-30T11:34:52;23.80;59.10
15394;DHT22;7795;47.986;11.868;2023-09-30T11:37:18;23.80;59.30
15394;DHT22;7795;47.986;11.868;2023-09-30T11:39:44;23.80;59.10
15394;DHT22;7795;47.986;11.868;2023-09-30T11:42:15;23.80;59.10
15394;DHT22;7795;47.986;11.868;2023-09-30T11:44:46;23.80;58.80
15394;DHT22;7795;47.986;11.868;2023-09-30T11:47:16;23.80;58.70
15394;DHT22;7795;47.986;11.868;2023-09-30T11:49:43;23.80;58.90
15394;DHT22;7795;47.986;11.868;2023-09-30T11:52:15;23.80;59.00
15394;DHT22;7795;47.986;11.868;2023-09-30T11:54:42;23.80;59.10
15394;DHT22;7795;47.986;11.868;2023-09-30T11:57:10;23.80;59.10
15394;DHT22;7795;47.986;11.868;2023-09-30T11:59:36;23.80;58.70
15394;DHT22;7795;47.986;11.868;2023-09-30T12:02:02;23.80;58.50
15394;DHT22;7795;47.986;11.868;2023-09-30T12:04:28;23.80;58.30
15394;DHT22;7795;47.986;11.868;2023-09-30T12:06:57;23.80;58.30
15394;DHT22;7795;47.986;11.868;2023-09-30T12:09:23;23.90;58.10
15394;DHT22;7795;47.986;11.868;2023-09-30T12:11:51;23.90;57.80
15394;DHT22;7795;47.986;11.868;2023-09-30T12:14:17;23.90;57.80
15394;DHT22;7795;47.986;11.868;2023-09-30T12:16:43;23.90;57.70
15394;DHT22;7795;47.986;11.868;2023-09-30T12:19:13;23.90;57.40
15394;DHT22;7795;47.986;11.868;2023-09-30T12:21:39;23.90;57.30
15394;DHT22;7795;47.986;11.868;2023-09-30T12:24:07;23.90;57.20
15394;DHT22;7795;47.986;11.868;2023-09-30T12:26:34;23.90;57.20
15394;DHT22;7795;47.986;11.868;2023-09-30T12:29:00;23.90;57.50
15394;DHT22;7795;47.986;11.868;2023-09-30T12:31:26;23.90;57.30
15394;DHT22;7795;47.986;11.868;2023-09-30T12:33:52;24.00;57.40
15394;DHT22;7795;47.986;11.868;2023-09-30T12:36:19;24.00;57.20
15394;DHT22;7795;47.986;11.868;2023-09-30T12:38:45;24.00;57.10
15394;DHT22;7795;47.986;11.868;2023-09-30T12:41:13;24.00;57.20
15394;DHT22;7795;47.986;11.868;2023-09-30T12:43:39;24.00;56.90
15394;DHT22;7795;47.986;11.868;2023-09-30T12:46:07;24.00;57.00
15394;DHT22;7795;47.986;11.868;2023-09-30T12:48:33;24.00;57.80
15394;DHT22;7795;47.986;11.868;2023-09-30T12:50:59;24.00;56.90
15394;DHT22;7795;47.986;11.868;2023-09-30T12:53:25;24.00;57.10
15394;DHT22;7795;47.986;11.868;2023-09-30T12:55:51;24.00;57.30
15394;DHT22;7795;47.986;11.868;2023-09-30T12:58:18;24.10;57.40
15394;DHT22;7795;47.986;11.868;2023-09-30T13:00:43;24.10;57.20
15394;DHT22;7795;47.986;11.868;2023-09-30T13:03:09;24.10;57.70
15394;DHT22;7795;47.986;11.868;2023-09-30T13:05:35;24.10;57.20
15394;DHT22;7795;47.986;11.868;2023-09-30T13:08:01;24.10;57.20
15394;DHT22;7795;47.986;11.868;2023-09-30T13:10:27;24.10;57.20
15394;DHT22;7795;47.986;11.868;2023-09-30T13:12:54;24.10;56.90
15394;DHT22;7795;47.986;11.868;2023-09-30T13:15:22;24.10;57.60
15394;DHT22;7795;47.986;11.868;2023-09-30T13:17:49;24.10;57.00
15394;DHT22;7795;47.986;11.868;2023-09-30T13:20:15;24.10;56.80
15394;DHT22;7795;47.986;11.868;2023-09-30T13:22:42;24.10;56.20
15394;DHT22;7795;47.986;11.868;2023-09-30T13:25:08;24.10;56.20
15394;DHT22;7795;47.986;11.868;2023-09-30T13:27:37;24.10;56.10
15394;DHT22;7795;47.986;11.868;2023-09-30T13:30:04;24.10;56.10
15394;DHT22;7795;47.986;11.868;2023-09-30T13:32:31;24.10;56.20
15394;DHT22;7795;47.986;11.868;2023-09-30T13:34:58;24.10;56.10
15394;DHT22;7795;47.986;11.868;2023-09-30T13:37:24;24.10;56.10
15394;DHT22;7795;47.986;11.868;2023-09-30T13:39:55;24.10;56.00
15394;DHT22;7795;47.986;11.868;2023-09-30T13:42:21;24.10;55.80
15394;DHT22;7795;47.986;11.868;2023-09-30T13:44:46;24.10;55.80
15394;DHT22;7795;47.986;11.868;2023-09-30T13:47:13;24.10;55.80
15394;DHT22;7795;47.986;11.868;2023-09-30T13:49:40;24.10;55.60
15394;DHT22;7795;47.986;11.868;2023-09-30T13:52:06;24.10;55.50
15394;DHT22;7795;47.986;11.868;2023-09-30T13:54:32;24.10;55.60
15394;DHT22;7795;47.986;11.868;2023-09-30T13:56:58;24.10;55.70
15394;DHT22;7795;47.986;11.868;2023-09-30T13:59:24;24.10;55.80
15394;DHT22;7795;47.986;11.868;2023-09-30T14:01:50;24.10;55.80
15394;DHT22;7795;47.986;11.868;2023-09-30T14:04:16;24.10;55.50
15394;DHT22;7795;47.986;11.868;2023-09-30T14:06:43;24.20;55.50
15394;DHT22;7795;47.986;11.868;2023-09-30T14:09:09;24.20;55.40
15394;DHT22;7795;47.986;11.868;2023-09-30T14:11:40;24.20;55.60
15394;DHT22;7795;47.986;11.868;2023-09-30T14:14:06;24.10;55.60
15394;DHT22;7795;47.986;11.868;2023-09-30T14:16:33;24.10;55.70
15394;DHT22;7795;47.986;11.868;2023-09-30T14:18:59;24.10;55.60
15394;DHT22;7795;47.986;11.868;2023-09-30T14:21:26;24.10;55.70
15394;DHT22;7795;47.986;11.868;2023-09-30T14:23:53;24.10;56.00
15394;DHT22;7795;47.986;11.868;2023-09-30T14:26:19;24.10;56.10
15394;DHT22;7795;47.986;11.868;2023-09-30T14:28:45;24.10;56.10
15394;DHT22;7795;47.986;11.868;2023-09-30T14:31:11;24.10;56.10
15394;DHT22;7795;47.986;11.868;2023-09-30T14:33:37;24.10;55.80
15394;DHT22;7795;47.986;11.868;2023-09-30T14:36:02;24.00;55.70
15394;DHT22;7795;47.986;11.868;2023-09-30T14:38:31;24.00;55.80
15394;DHT22;7795;47.986;11.868;2023-09-30T14:40:58;23.90;55.80
15394;DHT22;7795;47.986;11.868;2023-09-30T14:43:24;23.90;55.70
15394;DHT22;7795;47.986;11.868;2023-09-30T14:45:49;23.90;56.40
15394;DHT22;7795;47.986;11.868;2023-09-30T14:48:15;23.90;55.80
15394;DHT22;7795;47.986;11.868;2023-09-30T14:50:48;23.90;56.00
15394;DHT22;7795;47.986;11.868;2023-09-30T14:53:15;23.90;55.60
15394;DHT22;7795;47.986;11.868;2023-09-30T14:55:41;23.90;55.90
15394;DHT22;7795;47.986;11.868;2023-09-30T14:58:09;23.90;55.90
15394;DHT22;7795;47.986;11.868;2023-09-30T15:00:34;23.90;56.20
15394;DHT22;7795;47.986;11.868;2023-09-30T15:03:00;23.80;56.30
15394;DHT22;7795;47.986;11.868;2023-09-30T15:05:26;23.80;56.30
15394;DHT22;7795;47.986;11.868;2023-09-30T15:07:52;23.80;56.10
15394;DHT22;7795;47.986;11.868;2023-09-30T15:10:18;23.80;56.40
15394;DHT22;7795;47.986;11.868;2023-09-30T15:12:44;23.80;56.60
15394;DHT22;7795;47.986;11.868;2023-09-30T15:15:11;23.70;56.50
15394;DHT22;7795;47.986;11.868;2023-09-30T15:17:39;23.70;56.60
15394;DHT22;7795;47.986;11.868;2023-09-30T15:20:06;23.60;56.70
15394;DHT22;7795;47.986;11.868;2023-09-30T15:22:32;23.60;56.70
15394;DHT22;7795;47.986;11.868;2023-09-30T15:24:58;23.60;56.90
15394;DHT22;7795;47.986;11.868;2023-09-30T15:27:24;23.50;57.00
15394;DHT22;7795;47.986;11.868;2023-09-30T15:29:50;23.50;57.20
15394;DHT22;7795;47.986;11.868;2023-09-30T15:32:17;23.50;57.40
15394;DHT22;7795;47.986;11.868;2023-09-30T15:34:43;23.50;57.60
15394;DHT22;7795;47.986;11.868;2023-09-30T15:37:09;23.40;57.60